TimeCDT,TemperatureF,Dew PointF,Humidity,Sea Level PressureIn,VisibilityMPH,Wind Direction,Wind SpeedMPH,Gust SpeedMPH,PrecipitationIn,Events,Conditions,WindDirDegrees,DateUTC
12:06 AM,39.2,35.6,87,29.78,0.5,Calm,Calm,-,N/A,Fog,Fog,0,2012-10-14 05:06:00
12:17 AM,39.2,35.6,87,29.78,0.2,Calm,Calm,-,N/A,Fog,Fog,0,2012-10-14 05:17:00
12:53 AM,37.9,36.0,93,29.80,0.2,Calm,Calm,-,N/A,Fog,Fog,0,2012-10-14 05:53:00
1:53 AM,39.0,37.0,93,29.80,0.2,Calm,Calm,-,N/A,Fog,Fog,0,2012-10-14 06:53:00
2:42 AM,39.2,37.4,93,29.79,0.2,Calm,Calm,-,N/A,Fog,Fog,0,2012-10-14 07:42:00
2:53 AM,39.9,37.9,93,29.81,0.2,NNE,3.5,-,N/A,Fog,Fog,20,2012-10-14 07:53:00
3:12 AM,39.2,37.4,93,29.79,0.2,NE,3.5,-,N/A,Fog,Fog,40,2012-10-14 08:12:00
3:53 AM,41.0,39.0,93,29.83,0.2,ENE,3.5,-,N/A,Fog,Fog,60,2012-10-14 08:53:00
4:53 AM,41.0,39.0,93,29.84,0.2,NNE,4.6,-,N/A,Fog,Fog,20,2012-10-14 09:53:00
5:48 AM,41.0,37.4,87,29.82,0.5,NNE,4.6,-,N/A,Fog,Fog,30,2012-10-14 10:48:00
5:53 AM,41.0,37.9,89,29.84,0.5,North,6.9,-,N/A,Fog,Fog,360,2012-10-14 10:53:00
6:53 AM,39.9,37.9,93,29.85,1.2,North,5.8,-,N/A,,Overcast,360,2012-10-14 11:53:00
7:12 AM,39.2,37.4,93,29.82,2.0,North,5.8,-,N/A,,Overcast,10,2012-10-14 12:12:00
7:34 AM,39.2,37.4,93,29.82,4.0,North,3.5,-,N/A,,Overcast,10,2012-10-14 12:34:00
7:53 AM,39.0,37.0,93,29.85,7.0,North,5.8,-,N/A,,Overcast,350,2012-10-14 12:53:00
8:53 AM,41.0,39.0,93,29.87,5.0,North,4.6,-,N/A,,Overcast,360,2012-10-14 13:53:00
9:53 AM,44.1,39.9,85,29.87,7.0,NNE,10.4,-,N/A,,Overcast,20,2012-10-14 14:53:00
10:16 AM,46.4,41.0,81,29.85,8.0,NNE,9.2,-,N/A,,Overcast,20,2012-10-14 15:16:00
10:48 AM,48.2,41.0,76,29.85,10.0,NNE,8.1,-,N/A,,Mostly Cloudy,30,2012-10-14 15:48:00
10:53 AM,48.0,41.0,77,29.88,10.0,NNE,6.9,-,N/A,,Mostly Cloudy,20,2012-10-14 15:53:00
11:00 AM,48.2,39.2,71,29.85,10.0,North,6.9,-,N/A,,Mostly Cloudy,360,2012-10-14 16:00:00
11:53 AM,53.1,39.0,59,29.87,10.0,North,12.7,18.4,N/A,,Partly Cloudy,10,2012-10-14 16:53:00
12:53 PM,54.0,37.0,53,29.86,10.0,North,11.5,-,N/A,,Scattered Clouds,350,2012-10-14 17:53:00
1:53 PM,55.9,36.0,47,29.85,10.0,NNW,12.7,19.6,N/A,,Partly Cloudy,340,2012-10-14 18:53:00
3:53 PM,57.9,33.1,39,29.84,10.0,NNW,13.8,21.9,N/A,,Scattered Clouds,330,2012-10-14 20:53:00
4:53 PM,55.0,36.0,49,29.86,10.0,North,11.5,-,N/A,,Scattered Clouds,350,2012-10-14 21:53:00
5:53 PM,55.0,37.0,51,29.87,10.0,North,10.4,-,N/A,,Overcast,350,2012-10-14 22:53:00
6:53 PM,50.0,36.0,59,29.87,10.0,NNW,3.5,-,N/A,,Partly Cloudy,330,2012-10-14 23:53:00
7:53 PM,46.9,36.0,66,29.89,10.0,NNW,4.6,-,N/A,,Clear,340,2012-10-15 00:53:00
8:53 PM,44.1,34.0,68,29.91,10.0,NW,5.8,-,N/A,,Clear,320,2012-10-15 01:53:00
9:53 PM,42.1,32.0,67,29.91,10.0,NNW,5.8,-,N/A,,Clear,330,2012-10-15 02:53:00
10:53 PM,43.0,32.0,65,29.92,10.0,NW,4.6,-,N/A,,Clear,320,2012-10-15 03:53:00
11:53 PM,42.1,32.0,67,29.92,10.0,NNW,5.8,-,N/A,,Clear,330,2012-10-15 04:53:00